Time;durP1;ratioP1;P1;durP2;ratioP2;P2;SDS_P1;SDS_P2;PMS_P1;PMS_P2;Temp;Humidity;BMP_temperature;BMP_pressure;BME280_temperature;BME280_humidity;BME280_pressure;Samples;Min_cycle;Max_cycle;Signal;HPM_P1;HPM_P2
2022/09/15 18:29:17;;;;;;;;;11.50;9.50;;;;;26.89;100.00;101438.72;4325790;32;51143;-58
2022/09/15 18:32:02;;;;;;;;;9.75;9.75;;;;;26.91;100.00;101426.78;5066679;28;51168;-57
2022/09/15 18:34:47;;;;;;;;;17.00;10.25;;;;;27.02;100.00;101434.28;5050107;28;51175;-54
2022/09/15 18:37:32;;;;;;;;;15.25;10.00;;;;;27.10;100.00;101431.06;5054914;28;51136;-57
2022/09/15 18:40:17;;;;;;;;;9.50;8.25;;;;;27.16;100.00;101421.63;5055767;28;51200;-55
2022/09/15 18:43:02;;;;;;;;;11.00;5.75;;;;;27.15;100.00;101414.41;5052928;28;51115;-57
2022/09/15 18:45:47;;;;;;;;;12.00;7.00;;;;;27.18;100.00;101417.81;5056626;28;51119;-60
2022/09/15 18:48:32;;;;;;;;;9.00;9.00;;;;;27.24;100.00;101422.00;5053448;28;51123;-58
2022/09/15 18:51:16;;;;;;;;;11.00;9.00;;;;;27.26;100.00;101430.09;5054280;28;51226;-55
2022/09/15 18:54:01;;;;;;;;;9.75;9.00;;;;;27.20;100.00;101412.22;5056474;28;51154;-55
2022/09/15 18:56:45;;;;;;;;;11.25;8.50;;;;;27.25;100.00;101412.84;5053826;28;51045;-55
2022/09/15 18:59:30;;;;;;;;;16.25;12.00;;;;;27.22;100.00;101413.03;5054727;28;51100;-55
2022/09/15 19:02:14;;;;;;;;;10.00;8.25;;;;;27.29;100.00;101424.44;5047772;28;51174;-57
2022/09/15 19:05:02;;;;;;;;;13.00;10.00;;;;;27.30;100.00;101437.13;5049928;28;51379;-55
2022/09/15 19:07:47;;;;;;;;;9.50;9.00;;;;;27.26;100.00;101428.25;5045434;28;51128;-55
2022/09/15 19:10:32;;;;;;;;;11.50;10.25;;;;;27.28;100.00;101422.69;5043372;28;51166;-55
2022/09/15 19:13:16;;;;;;;;;11.50;9.25;;;;;27.28;100.00;101428.16;5046232;28;51556;-55
2022/09/15 19:16:03;;;;;;;;;10.25;9.50;;;;;27.27;100.00;101418.19;5045544;28;51147;-57
2022/09/15 19:18:49;;;;;;;;;12.75;8.75;;;;;27.25;100.00;101418.31;5051028;28;51259;-58
2022/09/15 19:21:33;;;;;;;;;16.75;12.25;;;;;27.25;100.00;101422.91;5053015;28;51233;-55
2022/09/15 19:24:17;;;;;;;;;9.00;8.50;;;;;27.25;100.00;101423.75;5048664;28;51452;-57
2022/09/15 19:27:06;;;;;;;;;9.00;9.00;;;;;27.22;100.00;101422.13;5045655;28;51140;-58
2022/09/15 19:29:51;;;;;;;;;11.00;9.25;;;;;27.25;100.00;101425.63;5040728;28;51073;-60
2022/09/15 19:32:36;;;;;;;;;10.50;7.25;;;;;27.25;100.00;101423.75;5040875;28;51096;-59
2022/09/15 19:35:20;;;;;;;;;10.00;9.00;;;;;27.27;100.00;101429.13;5040901;28;51040;-59
2022/09/15 19:38:05;;;;;;;;;8.75;8.00;;;;;27.29;100.00;101435.38;5042095;28;51169;-59
2022/09/15 19:40:49;;;;;;;;;13.00;10.00;;;;;27.31;100.00;101442.47;5048518;28;51546;-55
2022/09/15 19:43:35;;;;;;;;;9.00;8.25;;;;;27.32;100.00;101440.66;5040209;28;51201;-57
2022/09/15 19:46:25;;;;;;;;;10.00;9.25;;;;;27.30;100.00;101442.59;5037538;28;51643;-57
2022/09/15 19:49:10;;;;;;;;;12.50;9.75;;;;;27.26;100.00;101449.22;5049328;28;51006;-59
2022/09/15 19:51:55;;;;;;;;;9.75;9.75;;;;;27.27;100.00;101451.88;5047153;28;51111;-54
2022/09/15 19:54:39;;;;;;;;;9.25;8.00;;;;;27.32;100.00;101459.78;5036740;28;51614;-55
2022/09/15 19:57:23;;;;;;;;;13.75;9.75;;;;;27.33;100.00;101461.53;5038664;28;51065;-56
2022/09/15 20:00:11;;;;;;;;;7.75;6.25;;;;;27.34;100.00;101466.03;5041397;28;51221;-57
2022/09/15 20:02:55;;;;;;;;;11.25;9.00;;;;;27.32;100.00;101457.91;5034145;28;51399;-53
2022/09/15 20:05:40;;;;;;;;;12.00;8.00;;;;;27.32;100.00;101466.09;5030618;28;51175;-55
2022/09/15 20:08:24;;;;;;;;;9.25;7.25;;;;;27.33;100.00;101467.88;5034380;28;51144;-55
2022/09/15 20:11:09;;;;;;;;;13.00;10.00;;;;;27.35;100.00;101471.38;5041559;28;51392;-56
2022/09/15 20:13:54;;;;;;;;;8.25;8.00;;;;;27.38;100.00;101481.22;5035082;28;51102;-58
2022/09/15 20:16:38;;;;;;;;;9.00;6.25;;;;;27.39;100.00;101488.47;5035374;28;51196;-54
2022/09/15 20:19:23;;;;;;;;;9.75;6.25;;;;;27.36;100.00;101484.06;5032012;28;51136;-58
2022/09/15 20:22:07;;;;;;;;;9.25;7.25;;;;;27.37;100.00;101495.88;5030168;28;51264;-58
2022/09/15 20:24:54;;;;;;;;;11.00;8.50;;;;;27.32;100.00;101485.22;5034017;28;51318;-59
2022/09/15 20:27:40;;;;;;;;;10.50;9.75;;;;;27.29;100.00;101488.19;5023375;28;51560;-59
2022/09/15 20:30:25;;;;;;;;;11.75;8.75;;;;;27.27;100.00;101490.13;5030504;28;51649;-59
2022/09/15 20:33:09;;;;;;;;;11.25;9.00;;;;;27.18;100.00;101485.25;5038035;28;51189;-60
2022/09/15 20:35:54;;;;;;;;;9.00;5.50;;;;;27.22;100.00;101487.69;5030947;28;51330;-59
2022/09/15 20:38:40;;;;;;;;;12.25;8.00;;;;;27.22;100.00;101492.25;5036540;28;52774;-59
2022/09/15 20:41:26;;;;;;;;;9.00;7.00;;;;;27.19;100.00;101492.47;5028699;28;51463;-59
2022/09/15 20:44:10;;;;;;;;;11.75;6.25;;;;;27.04;100.00;101481.50;5031012;28;51065;-60
2022/09/15 20:46:54;;;;;;;;;11.25;10.25;;;;;27.16;100.00;101492.63;5026009;28;51394;-59
2022/09/15 20:49:39;;;;;;;;;8.75;8.25;;;;;27.15;100.00;101496.34;5035946;28;51191;-59
2022/09/15 20:52:23;;;;;;;;;12.50;9.50;;;;;27.11;100.00;101494.75;5030803;28;51172;-60
2022/09/15 20:55:08;;;;;;;;;12.25;9.50;;;;;27.12;100.00;101502.00;5038972;28;51474;-58
2022/09/15 20:57:53;;;;;;;;;8.25;6.00;;;;;27.04;100.00;101497.00;5021787;28;51313;-60
2022/09/15 21:00:37;;;;;;;;;10.00;8.00;;;;;27.09;100.00;101513.13;5039257;28;51175;-59
2022/09/15 21:03:22;;;;;;;;;11.00;9.25;;;;;27.08;100.00;101512.22;5027593;28;51390;-58
2022/09/15 21:06:09;;;;;;;;;9.50;8.00;;;;;27.04;100.00;101516.09;5057499;27;51188;-58
2022/09/15 21:08:54;;;;;;;;;10.50;8.00;;;;;27.08;100.00;101523.16;5031647;28;51231;-58
2022/09/15 21:11:42;;;;;;;;;9.00;9.00;;;;;27.09;100.00;101524.06;5038250;28;51183;-59
2022/09/15 21:14:26;;;;;;;;;14.50;8.25;;;;;27.08;100.00;101527.75;5035443;28;51286;-59
2022/09/15 21:17:11;;;;;;;;;13.50;9.00;;;;;27.05;100.00;101524.22;5033901;28;51436;-59
2022/09/15 21:19:55;;;;;;;;;9.00;9.00;;;;;27.01;100.00;101519.91;5048485;28;51571;-60
2022/09/15 21:22:40;;;;;;;;;11.75;9.75;;;;;27.02;100.00;101521.69;5030108;28;51210;-60
2022/09/15 21:25:24;;;;;;;;;11.75;7.00;;;;;27.00;100.00;101523.63;5030333;28;51172;-57
2022/09/15 21:28:09;;;;;;;;;11.75;9.50;;;;;27.00;100.00;101534.53;5034867;28;51373;-60
2022/09/15 21:31:17;;;;;;;;;11.00;9.00;;;;;26.95;100.00;101513.94;5032720;28;51230;-58
2022/09/15 21:34:01;;;;;;;;;14.00;11.50;;;;;27.02;100.00;101529.00;5035580;28;51478;-59
2022/09/15 21:36:46;;;;;;;;;11.50;6.50;;;;;27.03;100.00;101531.63;5038992;28;51358;-57
2022/09/15 21:39:31;;;;;;;;;14.00;7.25;;;;;26.99;100.00;101535.50;5008784;28;51208;-59
2022/09/15 21:42:17;;;;;;;;;9.00;6.00;;;;;26.95;100.00;101538.53;5029913;28;51403;-59
2022/09/15 21:45:02;;;;;;;;;8.75;8.25;;;;;26.95;100.00;101544.88;5019652;28;51327;-59
2022/09/15 21:47:47;;;;;;;;;11.00;9.75;;;;;26.94;100.00;101548.56;5016842;28;51913;-58
2022/09/15 21:50:32;;;;;;;;;11.50;9.25;;;;;26.92;100.00;101547.78;5039594;28;51144;-58
2022/09/15 21:53:17;;;;;;;;;15.00;8.75;;;;;26.79;100.00;101539.47;5036634;28;51457;-59
2022/09/15 21:56:07;;;;;;;;;12.50;10.00;;;;;26.89;100.00;101562.50;5030782;28;51186;-58
2022/09/15 21:58:53;;;;;;;;;8.25;7.00;;;;;26.89;100.00;101569.81;5032445;28;51123;-59
2022/09/15 22:01:39;;;;;;;;;12.25;9.75;;;;;26.88;100.00;101581.69;5031619;28;51032;-59
2022/09/15 22:04:23;;;;;;;;;11.50;6.25;;;;;26.89;100.00;101581.63;5030450;28;51095;-59
2022/09/15 22:07:08;;;;;;;;;9.50;9.50;;;;;26.84;100.00;101571.94;5030771;28;51138;-58
2022/09/15 22:09:53;;;;;;;;;13.25;10.25;;;;;26.93;100.00;101589.66;5038112;28;51867;-58
2022/09/15 22:12:37;;;;;;;;;10.00;7.50;;;;;26.93;100.00;101579.59;5032380;28;51141;-60
2022/09/15 22:15:22;;;;;;;;;8.50;7.75;;;;;26.93;100.00;101578.72;5036352;28;51078;-58
2022/09/15 22:18:07;;;;;;;;;9.75;9.00;;;;;26.90;100.00;101577.03;5036586;28;51261;-58
2022/09/15 22:21:14;;;;;;;;;11.25;8.75;;;;;26.91;100.00;101571.50;5030425;28;51131;-60
2022/09/15 22:23:59;;;;;;;;;14.00;8.75;;;;;26.89;100.00;101573.44;5049992;28;51280;-59
2022/09/15 22:26:43;;;;;;;;;13.00;8.00;;;;;26.87;100.00;101569.03;5049087;28;51179;-59
2022/09/15 22:29:28;;;;;;;;;9.00;8.00;;;;;26.83;100.00;101565.59;5038436;28;51275;-58
2022/09/15 22:32:12;;;;;;;;;13.00;8.75;;;;;26.88;100.00;101578.97;5032184;28;51504;-60
2022/09/15 22:34:56;;;;;;;;;9.75;8.25;;;;;26.86;100.00;101578.19;5039129;28;51506;-59
2022/09/15 22:37:40;;;;;;;;;11.75;6.00;;;;;26.87;100.00;101586.28;5038482;28;51162;-59
2022/09/15 22:40:25;;;;;;;;;13.50;8.25;;;;;26.83;100.00;101581.09;5033989;28;51002;-59
2022/09/15 22:43:09;;;;;;;;;10.25;8.00;;;;;26.87;100.00;101586.28;5022781;28;51339;-60
2022/09/15 22:45:54;;;;;;;;;14.00;9.50;;;;;26.80;100.00;101579.44;5039667;28;51180;-59
2022/09/15 22:48:38;;;;;;;;;10.75;7.75;;;;;26.82;100.00;101576.59;5039225;28;51099;-59
2022/09/15 22:51:23;;;;;;;;;10.75;6.00;;;;;26.84;100.00;101574.69;5039139;28;51086;-59
2022/09/15 22:54:07;;;;;;;;;10.50;8.75;;;;;26.82;100.00;101566.59;5039991;28;51006;-57
2022/09/15 22:56:52;;;;;;;;;8.75;7.00;;;;;26.80;100.00;101565.78;5039191;28;51546;-59
2022/09/15 22:59:36;;;;;;;;;13.50;8.25;;;;;26.80;100.00;101564.91;5040980;28;51520;-59
2022/09/15 23:02:21;;;;;;;;;10.75;10.00;;;;;26.83;100.00;101575.66;5059412;28;51145;-59
2022/09/15 23:05:06;;;;;;;;;6.50;6.50;;;;;26.81;100.00;101575.75;5035153;28;51534;-59
2022/09/15 23:07:50;;;;;;;;;12.00;8.00;;;;;26.80;100.00;101581.28;5035824;28;51555;-58
2022/09/15 23:10:35;;;;;;;;;11.50;8.75;;;;;26.78;100.00;101580.47;5037882;28;51022;-59
2022/09/15 23:13:19;;;;;;;;;15.00;8.50;;;;;26.79;100.00;101579.50;5039744;28;51491;-59
2022/09/15 23:16:05;;;;;;;;;9.50;7.50;;;;;26.73;100.00;101584.34;5037342;28;51137;-59
2022/09/15 23:18:50;;;;;;;;;11.00;9.50;;;;;26.78;100.00;101580.47;5032395;28;51039;-60
2022/09/15 23:21:35;;;;;;;;;10.00;9.00;;;;;26.79;100.00;101582.25;5047123;28;51173;-58
2022/09/15 23:24:19;;;;;;;;;3.00;2.00;;;;;26.79;100.00;101563.13;5032545;28;51472;-60
2022/09/15 23:27:04;;;;;;;;;12.25;7.00;;;;;26.75;100.00;101566.03;5044283;28;51115;-59
2022/09/15 23:29:48;;;;;;;;;10.50;8.50;;;;;26.70;100.00;101556.34;5041482;28;51033;-60
2022/09/15 23:32:33;;;;;;;;;11.25;8.25;;;;;26.79;100.00;101561.31;5035956;28;51651;-59
2022/09/15 23:35:17;;;;;;;;;7.75;6.25;;;;;26.80;100.00;101564.91;5040562;28;51111;-58
2022/09/15 23:38:01;;;;;;;;;12.50;8.00;;;;;26.71;100.00;101541.75;5038652;28;51358;-60
2022/09/15 23:40:47;;;;;;;;;17.00;9.50;;;;;26.79;100.00;101550.38;5036458;28;51139;-59
2022/09/15 23:43:32;;;;;;;;;14.25;10.50;;;;;26.80;100.00;101545.78;5042717;28;51247;-60
2022/09/15 23:46:16;;;;;;;;;11.50;8.25;;;;;26.81;100.00;101553.00;5033906;28;51094;-59
2022/09/15 23:49:01;;;;;;;;;10.25;6.50;;;;;26.78;100.00;101540.44;5032415;28;51229;-58
2022/09/15 23:51:46;;;;;;;;;9.25;7.75;;;;;26.76;100.00;101542.31;5035489;28;51219;-58
2022/09/15 23:54:30;;;;;;;;;10.00;9.00;;;;;26.77;100.00;101541.38;5034403;28;51108;-60
2022/09/15 23:57:14;;;;;;;;;10.50;6.50;;;;;26.77;100.00;101527.72;5026959;28;51415;-60
2022/09/15 23:59:59;;;;;;;;;12.50;7.75;;;;;26.78;100.00;101540.44;5032831;28;51155;-59
